Des Moines, IA

4:31 AM CDT on August 25, 2016 (GMT -0500)
South Merle Hay Road | | Change Station

Elev 944 ft 41.61 °N, 93.70 °W | Updated 2 minutes ago

Mostly Cloudy
Mostly Cloudy
66.2 °F
Feels Like 66.2 °F
N
-
Wind Variable Wind from North

Today
High -- | Low -- °F
--% Chance of Precip.
Yesterday
High -- | Low -- °F
Precip. -- in
Pressure 30.03 in
Visibility 10.0 miles
Clouds Few 4500 ft
Scattered Clouds 14000 ft
Mostly Cloudy 25000 ft
Dew Point 65 °F
Humidity 96%
Rainfall 0.00 in
Snow Depth Not available.
6:34 AM 7:58 PM
Waning Gibbous, 47% visible
METAR KDSM 250854Z 35005KT 10SM FEW045 SCT140 BKN250 21/18 A3005 RMK AO2 SLP167 T02060183 52007
Pressure 30.03 in
Visibility 10.0 miles
Clouds Few 4500 ft
Scattered Clouds 14000 ft
Mostly Cloudy 25000 ft
Dew Point 65 °F
Humidity 96%
Rainfall 0.00 in
Snow Depth Not available.
6:34 AM 7:58 PM
Waning Gibbous, 47% visible
METAR KDSM 250854Z 35005KT 10SM FEW045 SCT140 BKN250 21/18 A3005 RMK AO2 SLP167 T02060183 52007

10-Day Weather Forecast

Almanac

Astronomy

Aug. 25, 2016 Rise Set
Actual Time
Civil Twilight
Nautical Twilight
Astronomical Twilight
Moon
Length of Visible Light
Length of Day
Tomorrow will be .
, % of the Moon is Illuminated

Today's Extremes

State Highs State Lows

Community

WunderPhotos

Upload Photos

1,934,814 photos uploaded!

WunderBlog® & News

Nearby

Air Quality

  Air Quality AQ Index Pollutant
Not available.

Snow Depth

Station Depth Elevation

Earthquake Activity

City Distance Mag. Time & Date
Minimum magnitude displayed is 2.5.

Coastal Water Temperatures

Place Temperature

Stations

Nearby Weather Stations

Station Location Temp. Windchill Dew Point Humidity Wind Precip. Elev Updated Type
                   

Watches & Warnings

There are currently no watches in effect.